Camp Herbron, MA

10:30 AM EST on January 24, 2017 (GMT -0500)
| | Change Station
Active Advisory: Small Craft Advisory Active Notice: Public Information Statement

Elev -9999 ft 0.00 °N, 0.00 °E | Updated 0 second ago

Rain
Rain
°F
Feels Like °F
N
Wind Variable Wind from North
Gusts mph

Today
High -- | Low -- °F
--% Chance of Precip.
Yesterday
High -- | Low -- °F
Precip. -- in
Pressure 29.47 in
Visibility 3.0 miles
Clouds Overcast 700 ft
Dew Point Not available.
Humidity Not available.
Rainfall --
Snow Depth Not available.
7:04 AM 4:50 PM
Waning Crescent, 11% visible
METAR KSFZ 241456Z AUTO 04020G29KT 3SM -RA BR OVC007 04/03 A2940 RMK AO2 PK WND 05033/1416 SLP978 P0000 60001 T00440033 56018
Pressure 29.47 in
Visibility 3.0 miles
Clouds Overcast 700 ft
Dew Point Not available.
Humidity Not available.
Rainfall --
Snow Depth Not available.
7:04 AM 4:50 PM
Waning Crescent, 11% visible
METAR KSFZ 241456Z AUTO 04020G29KT 3SM -RA BR OVC007 04/03 A2940 RMK AO2 PK WND 05033/1416 SLP978 P0000 60001 T00440033 56018

Get Your Daily Forecast Email!

Thanks for signing up!

Be on the lookout for a verification email in your inbox.

You'll start receiving the daily forecast at 8 AM.

×

10-Day Weather Forecast

Almanac

Astronomy

Jan. 24, 2017 Rise Set
Actual Time
Civil Twilight
Nautical Twilight
Astronomical Twilight
Moon
Length of Visible Light
Length of Day
Tomorrow will be .
, % of the Moon is Illuminated

Today's Extremes

State Highs State Lows

Community

WunderPhotos

Upload Photos

1,962,540 photos uploaded!

WunderBlog® & News

Nearby

Air Quality

  Air Quality AQ Index Pollutant
Not available.

Snow Depth

Station Depth Elevation

Earthquake Activity

City Distance Mag. Time & Date
Minimum magnitude displayed is 2.5.

Coastal Water Temperatures

Place Temperature

Stations

Nearby Weather Stations

Station Location Temp. Windchill Dew Point Humidity Wind Precip. Elev Updated Type
                   

Watches & Warnings

Small Craft Advisory
Issued: 10:13 AM EST Jan. 24, 2017 – National Weather Service

... Small Craft Advisory in effect until 10 am EST Wednesday...

... Gale Warning is cancelled...

The National Weather Service in Taunton has issued a Small Craft
Advisory... which is in effect until 10 am EST Wednesday. The Gale
Warning has been cancelled.

* Winds and seas... north winds 10 to 15 kt with gusts up to 25
kt. Seas 1 to 3 feet.

Precautionary/preparedness actions...

A Small Craft Advisory means that wind speeds of 25 to 33 knots
are expected to produce hazardous wave conditions to small craft.
Inexperienced mariners... especially those operating smaller
vessels should avoid navigating in these conditions.